Time;durP1;ratioP1;P1;durP2;ratioP2;P2;SDS_P1;SDS_P2;PMS_P1;PMS_P2;Temp;Humidity;BMP_temperature;BMP_pressure;BME280_temperature;BME280_humidity;BME280_pressure;Samples;Min_cycle;Max_cycle;Signal;HPM_P1;HPM_P2
2024/04/01 00:00:30;;;;;;;239.67;74.70;;;;;;;;;;4975325;28;20720;-45
2024/04/01 00:02:56;;;;;;;242.52;81.05;;;;;;;;;;4975363;28;20483;-47
2024/04/01 00:05:21;;;;;;;242.30;79.90;;;;;;;;;;4971955;28;20652;-44
2024/04/01 00:07:50;;;;;;;243.13;79.60;;;;;;;;;;4975010;28;20921;-45
2024/04/01 00:10:16;;;;;;;241.55;76.32;;;;;;;;;;4975012;28;20411;-44
2024/04/01 00:12:41;;;;;;;241.27;76.97;;;;;;;;;;4983386;28;20199;-45
2024/04/01 00:15:07;;;;;;;247.30;82.47;;;;;;;;;;4993675;28;20438;-45
2024/04/01 00:17:33;;;;;;;242.32;78.28;;;;;;;;;;4993956;28;20521;-45
2024/04/01 00:19:59;;;;;;;240.03;75.60;;;;;;;;;;4993742;28;20183;-46
2024/04/01 00:22:25;;;;;;;239.73;75.10;;;;;;;;;;4993885;28;20601;-46
2024/04/01 00:24:51;;;;;;;244.17;80.97;;;;;;;;;;4987713;28;20466;-46
2024/04/01 00:27:17;;;;;;;242.17;78.23;;;;;;;;;;4993321;28;20410;-47
2024/04/01 00:29:43;;;;;;;242.80;78.23;;;;;;;;;;4993650;28;20434;-45
2024/04/01 00:32:09;;;;;;;240.90;77.80;;;;;;;;;;4993521;28;20405;-45
2024/04/01 00:34:35;;;;;;;239.40;74.53;;;;;;;;;;4993250;28;20479;-47
2024/04/01 00:37:01;;;;;;;240.05;77.13;;;;;;;;;;4993091;28;20461;-45
2024/04/01 00:39:27;;;;;;;239.87;73.83;;;;;;;;;;4993615;28;20549;-45
2024/04/01 00:41:53;;;;;;;241.27;78.67;;;;;;;;;;4993341;28;20493;-45
2024/04/01 00:44:19;;;;;;;240.60;76.97;;;;;;;;;;4993325;28;20434;-45
2024/04/01 00:46:45;;;;;;;244.80;81.80;;;;;;;;;;4982349;28;20613;-46
2024/04/01 00:49:12;;;;;;;239.73;75.50;;;;;;;;;;4977938;28;20295;-44
2024/04/01 00:51:39;;;;;;;240.75;75.53;;;;;;;;;;4977252;28;20506;-45
2024/04/01 00:54:06;;;;;;;240.52;76.60;;;;;;;;;;4974294;28;20611;-45
2024/04/01 00:56:32;;;;;;;244.52;79.68;;;;;;;;;;4978113;28;20277;-45
2024/04/01 00:59:00;;;;;;;238.07;75.05;;;;;;;;;;4974696;28;20179;-46
2024/04/01 01:01:26;;;;;;;238.93;74.78;;;;;;;;;;4973880;28;20171;-47
2024/04/01 01:03:52;;;;;;;240.02;75.13;;;;;;;;;;4980305;28;20201;-46
2024/04/01 01:06:18;;;;;;;245.23;82.90;;;;;;;;;;4973048;28;20245;-46
2024/04/01 01:08:45;;;;;;;238.47;72.47;;;;;;;;;;4975334;28;20424;-45
2024/04/01 01:11:11;;;;;;;239.90;75.05;;;;;;;;;;4974092;28;20424;-46
2024/04/01 01:13:37;;;;;;;239.90;76.03;;;;;;;;;;4977147;28;20682;-45
2024/04/01 01:16:03;;;;;;;241.57;78.60;;;;;;;;;;4978444;28;20203;-45
2024/04/01 01:18:29;;;;;;;237.00;73.15;;;;;;;;;;4980198;28;20910;-45
2024/04/01 01:20:55;;;;;;;243.10;81.30;;;;;;;;;;4973627;28;20213;-45
2024/04/01 01:23:21;;;;;;;239.07;75.30;;;;;;;;;;4973725;28;20485;-45
2024/04/01 01:25:48;;;;;;;242.97;78.97;;;;;;;;;;4977359;28;20511;-46
2024/04/01 01:28:14;;;;;;;242.45;76.57;;;;;;;;;;4975651;28;20418;-44
2024/04/01 01:30:39;;;;;;;239.77;73.77;;;;;;;;;;4976522;28;20558;-45
2024/04/01 01:33:09;;;;;;;242.30;79.70;;;;;;;;;;4979945;28;20422;-46
2024/04/01 01:35:36;;;;;;;242.57;76.88;;;;;;;;;;4973011;28;20937;-45
2024/04/01 01:38:02;;;;;;;240.98;78.38;;;;;;;;;;4974913;28;20608;-46
2024/04/01 01:40:28;;;;;;;243.32;80.85;;;;;;;;;;4976692;28;20316;-45
2024/04/01 01:42:54;;;;;;;237.05;73.82;;;;;;;;;;4973396;28;20182;-45
2024/04/01 01:45:20;;;;;;;243.45;80.78;;;;;;;;;;4977756;28;20554;-47
2024/04/01 01:47:46;;;;;;;244.23;81.63;;;;;;;;;;4975212;28;20262;-45
2024/04/01 01:50:12;;;;;;;244.03;82.07;;;;;;;;;;4973319;28;20430;-45
2024/04/01 01:52:38;;;;;;;242.10;76.32;;;;;;;;;;4975201;28;20441;-45
2024/04/01 01:55:05;;;;;;;243.00;79.93;;;;;;;;;;4972848;28;20679;-44
2024/04/01 01:57:32;;;;;;;245.23;82.68;;;;;;;;;;4977602;28;21017;-45
2024/04/01 01:59:57;;;;;;;241.43;77.75;;;;;;;;;;4973313;28;20183;-45
2024/04/01 02:02:24;;;;;;;239.27;76.20;;;;;;;;;;4972623;28;20192;-45
2024/04/01 02:04:50;;;;;;;241.95;76.45;;;;;;;;;;4971918;28;20478;-45
2024/04/01 02:07:15;;;;;;;246.70;85.13;;;;;;;;;;4972408;28;20210;-45
2024/04/01 02:09:42;;;;;;;242.10;77.40;;;;;;;;;;4973548;28;20419;-45
2024/04/01 02:12:08;;;;;;;242.80;81.00;;;;;;;;;;4973082;28;20423;-45
2024/04/01 02:14:38;;;;;;;240.13;75.07;;;;;;;;;;4978102;28;20706;-46
2024/04/01 02:17:04;;;;;;;243.00;81.03;;;;;;;;;;4964623;28;20201;-45
2024/04/01 02:19:33;;;;;;;241.35;76.25;;;;;;;;;;4972764;28;20273;-45
2024/04/01 02:21:59;;;;;;;245.77;84.43;;;;;;;;;;4974327;28;20210;-45
2024/04/01 02:24:26;;;;;;;239.88;74.95;;;;;;;;;;4972530;28;20249;-44
2024/04/01 02:26:52;;;;;;;239.00;72.93;;;;;;;;;;4973063;28;20196;-45
2024/04/01 02:29:19;;;;;;;236.70;74.40;;;;;;;;;;4977963;28;20215;-47
2024/04/01 02:31:45;;;;;;;240.13;77.17;;;;;;;;;;4971698;28;20346;-45
2024/04/01 02:34:11;;;;;;;241.67;80.10;;;;;;;;;;4974092;28;20463;-46
2024/04/01 02:36:37;;;;;;;243.07;77.77;;;;;;;;;;4975726;28;20466;-45
2024/04/01 02:39:04;;;;;;;243.68;80.50;;;;;;;;;;4972507;28;20448;-45
2024/04/01 02:41:30;;;;;;;242.25;78.43;;;;;;;;;;4972446;28;20238;-45
2024/04/01 02:43:56;;;;;;;241.38;77.07;;;;;;;;;;4972530;28;20197;-46
2024/04/01 02:46:22;;;;;;;243.60;82.07;;;;;;;;;;4973623;28;20373;-48
2024/04/01 02:48:48;;;;;;;239.53;76.50;;;;;;;;;;4993516;28;20784;-50
2024/04/01 02:51:14;;;;;;;239.40;74.97;;;;;;;;;;4995183;28;20418;-50
2024/04/01 02:53:47;;;;;;;243.57;78.67;;;;;;;;;;4994360;28;20471;-49
2024/04/01 02:56:13;;;;;;;241.45;75.43;;;;;;;;;;4994359;28;20457;-49
2024/04/01 02:58:41;;;;;;;241.50;75.43;;;;;;;;;;4994985;28;20186;-47
2024/04/01 03:01:07;;;;;;;243.50;80.75;;;;;;;;;;4994872;28;20305;-49
2024/04/01 03:03:33;;;;;;;236.18;72.55;;;;;;;;;;4994390;28;20213;-49
2024/04/01 03:05:59;;;;;;;238.33;71.67;;;;;;;;;;4994884;28;20185;-49
2024/04/01 03:08:25;;;;;;;239.37;74.63;;;;;;;;;;4994785;28;20923;-48
2024/04/01 03:10:58;;;;;;;242.07;76.70;;;;;;;;;;4993792;28;20439;-48
2024/04/01 03:13:24;;;;;;;239.68;74.15;;;;;;;;;;4994833;28;20205;-47
2024/04/01 03:15:50;;;;;;;239.20;73.90;;;;;;;;;;4994151;28;20201;-48
2024/04/01 03:18:16;;;;;;;238.87;74.37;;;;;;;;;;4995276;28;20183;-50
2024/04/01 03:20:42;;;;;;;238.87;73.27;;;;;;;;;;4994999;28;20406;-49
2024/04/01 03:23:08;;;;;;;241.73;76.23;;;;;;;;;;4994867;28;20507;-49
2024/04/01 03:25:34;;;;;;;239.43;74.40;;;;;;;;;;4994343;28;20422;-50
2024/04/01 03:27:59;;;;;;;238.80;75.30;;;;;;;;;;4994347;28;20920;-48
2024/04/01 03:30:25;;;;;;;243.27;83.23;;;;;;;;;;4994761;28;20410;-47
2024/04/01 03:32:51;;;;;;;239.03;74.80;;;;;;;;;;4995049;28;20785;-50
2024/04/01 03:35:17;;;;;;;243.03;78.93;;;;;;;;;;4997860;28;20416;-49
2024/04/01 03:37:43;;;;;;;242.00;76.18;;;;;;;;;;4998155;28;20469;-50
2024/04/01 03:40:09;;;;;;;237.20;74.57;;;;;;;;;;4997926;28;20565;-49
2024/04/01 03:42:36;;;;;;;241.35;76.75;;;;;;;;;;4998123;28;20443;-49
2024/04/01 03:45:06;;;;;;;245.80;81.15;;;;;;;;;;4997672;28;20206;-50
2024/04/01 03:47:32;;;;;;;239.35;75.32;;;;;;;;;;4997963;28;20193;-50
2024/04/01 03:49:58;;;;;;;243.47;81.90;;;;;;;;;;4998321;28;20192;-49
2024/04/01 03:52:24;;;;;;;241.40;78.22;;;;;;;;;;4997504;28;20420;-50
2024/04/01 03:54:50;;;;;;;240.57;76.57;;;;;;;;;;4997951;28;20284;-48
2024/04/01 03:57:16;;;;;;;243.30;82.50;;;;;;;;;;4996666;28;20721;-48
2024/04/01 03:59:43;;;;;;;237.77;75.10;;;;;;;;;;4996513;28;20412;-50
2024/04/01 04:02:09;;;;;;;239.35;74.60;;;;;;;;;;4997350;28;20455;-50
2024/04/01 04:04:35;;;;;;;243.48;78.90;;;;;;;;;;4995593;28;20199;-47
2024/04/01 04:07:01;;;;;;;241.73;80.25;;;;;;;;;;4978202;28;20265;-49
2024/04/01 04:09:27;;;;;;;239.07;74.20;;;;;;;;;;4977810;28;20184;-49
2024/04/01 04:11:54;;;;;;;240.93;75.17;;;;;;;;;;4978338;28;20223;-50
2024/04/01 04:14:23;;;;;;;244.32;81.85;;;;;;;;;;4983797;28;20512;-48
2024/04/01 04:16:50;;;;;;;242.00;76.53;;;;;;;;;;4996644;28;20227;-48
2024/04/01 04:19:16;;;;;;;242.35;80.10;;;;;;;;;;4997599;28;20179;-49
2024/04/01 04:21:42;;;;;;;242.40;80.30;;;;;;;;;;4997238;28;20177;-49
2024/04/01 04:24:09;;;;;;;239.40;75.22;;;;;;;;;;4997317;28;20219;-50
2024/04/01 04:26:35;;;;;;;241.18;77.10;;;;;;;;;;4996847;28;20189;-46
2024/04/01 04:29:01;;;;;;;240.02;76.05;;;;;;;;;;4996883;28;20261;-50
2024/04/01 04:31:27;;;;;;;244.30;81.07;;;;;;;;;;4997152;28;20178;-49
2024/04/01 04:33:54;;;;;;;242.85;79.88;;;;;;;;;;4996694;28;20197;-50
2024/04/01 04:36:21;;;;;;;243.32;79.10;;;;;;;;;;4996544;28;20217;-50
2024/04/01 04:38:47;;;;;;;242.00;74.57;;;;;;;;;;4996382;28;20182;-49
2024/04/01 04:41:13;;;;;;;241.15;76.35;;;;;;;;;;4996641;28;20232;-50
2024/04/01 04:43:39;;;;;;;238.32;71.45;;;;;;;;;;4997019;28;20678;-47
2024/04/01 04:46:05;;;;;;;235.73;70.60;;;;;;;;;;4996257;28;20236;-49
2024/04/01 04:48:31;;;;;;;241.60;78.33;;;;;;;;;;4996665;28;20494;-49
2024/04/01 04:50:57;;;;;;;238.77;74.03;;;;;;;;;;4996865;28;20796;-49
2024/04/01 04:53:24;;;;;;;241.27;77.17;;;;;;;;;;4996361;28;21023;-49
2024/04/01 04:55:50;;;;;;;242.80;79.15;;;;;;;;;;4995356;28;20463;-50
2024/04/01 04:58:16;;;;;;;236.37;70.10;;;;;;;;;;4991756;28;20184;-50
2024/04/01 05:00:42;;;;;;;241.95;77.75;;;;;;;;;;4992752;28;20472;-49
2024/04/01 05:03:07;;;;;;;240.07;76.77;;;;;;;;;;4995889;28;20183;-50
2024/04/01 05:05:35;;;;;;;243.73;80.97;;;;;;;;;;4995483;28;20416;-47
2024/04/01 05:08:03;;;;;;;240.88;76.13;;;;;;;;;;4995500;28;20957;-50
2024/04/01 05:10:30;;;;;;;237.98;73.80;;;;;;;;;;4996005;28;20177;-49
2024/04/01 05:12:56;;;;;;;239.48;74.78;;;;;;;;;;4995788;28;20207;-48
2024/04/01 05:15:22;;;;;;;238.60;71.90;;;;;;;;;;4995603;28;20181;-48
2024/04/01 05:17:48;;;;;;;236.30;69.35;;;;;;;;;;4995738;28;20462;-48
2024/04/01 05:20:14;;;;;;;238.20;72.07;;;;;;;;;;4995098;28;20262;-48
2024/04/01 05:22:40;;;;;;;234.23;69.77;;;;;;;;;;4994432;28;20419;-49
2024/04/01 05:25:07;;;;;;;241.07;76.90;;;;;;;;;;4994457;28;20452;-48
2024/04/01 05:27:33;;;;;;;242.13;77.85;;;;;;;;;;4994890;28;20412;-48
2024/04/01 05:30:02;;;;;;;236.53;73.13;;;;;;;;;;4994605;28;20547;-47
2024/04/01 05:32:29;;;;;;;239.57;75.90;;;;;;;;;;4993942;28;20475;-47
2024/04/01 05:34:55;;;;;;;237.65;70.13;;;;;;;;;;4994027;28;20267;-45
2024/04/01 05:37:22;;;;;;;236.70;70.77;;;;;;;;;;4976094;28;20197;-50
2024/04/01 05:39:48;;;;;;;238.48;72.60;;;;;;;;;;4976768;28;20413;-49
2024/04/01 05:42:14;;;;;;;237.65;70.25;;;;;;;;;;4974723;28;20181;-48
2024/04/01 05:44:40;;;;;;;236.37;69.70;;;;;;;;;;4979656;28;20203;-46
2024/04/01 05:47:06;;;;;;;232.87;66.70;;;;;;;;;;4984860;28;20512;-48
2024/04/01 05:49:32;;;;;;;234.27;66.97;;;;;;;;;;4978598;28;20428;-48
2024/04/01 05:51:57;;;;;;;234.57;65.97;;;;;;;;;;4974807;28;20416;-48
2024/04/01 05:54:23;;;;;;;235.47;69.23;;;;;;;;;;4976478;28;20484;-49
2024/04/01 05:56:49;;;;;;;237.27;70.50;;;;;;;;;;4977246;28;20519;-50
2024/04/01 05:59:15;;;;;;;235.07;67.83;;;;;;;;;;4979475;28;20517;-47
2024/04/01 06:01:41;;;;;;;235.63;70.45;;;;;;;;;;4981507;28;20843;-47
2024/04/01 06:04:07;;;;;;;234.07;66.30;;;;;;;;;;4974388;28;20193;-47
2024/04/01 06:06:33;;;;;;;234.57;67.20;;;;;;;;;;4970120;28;20943;-49
2024/04/01 06:08:59;;;;;;;236.20;69.57;;;;;;;;;;4975037;28;20440;-49
2024/04/01 06:11:25;;;;;;;236.70;72.03;;;;;;;;;;4974701;28;20937;-47
2024/04/01 06:13:52;;;;;;;233.45;66.07;;;;;;;;;;4974816;28;20443;-48
2024/04/01 06:16:18;;;;;;;232.10;65.83;;;;;;;;;;4980980;28;20197;-47
2024/04/01 06:18:44;;;;;;;237.13;69.70;;;;;;;;;;4974979;28;20417;-48
2024/04/01 06:21:10;;;;;;;235.57;66.90;;;;;;;;;;4975905;28;20449;-47
2024/04/01 06:23:36;;;;;;;237.65;72.20;;;;;;;;;;4977567;28;20448;-47
2024/04/01 06:26:02;;;;;;;235.23;67.60;;;;;;;;;;4975080;28;20208;-47
2024/04/01 06:28:28;;;;;;;236.13;67.63;;;;;;;;;;4979415;28;20427;-48
2024/04/01 06:30:54;;;;;;;237.60;71.83;;;;;;;;;;4971422;28;20436;-48
2024/04/01 06:33:20;;;;;;;233.93;65.90;;;;;;;;;;4975724;28;20448;-50
2024/04/01 06:35:46;;;;;;;239.57;72.07;;;;;;;;;;4976891;28;20449;-47
2024/04/01 06:38:12;;;;;;;236.47;68.13;;;;;;;;;;4975647;28;20445;-47
2024/04/01 06:40:38;;;;;;;235.10;68.55;;;;;;;;;;4985107;28;20416;-48
2024/04/01 06:43:04;;;;;;;238.43;71.70;;;;;;;;;;4980734;28;20176;-49
2024/04/01 06:45:30;;;;;;;236.35;68.15;;;;;;;;;;4981873;28;20420;-48
2024/04/01 06:47:56;;;;;;;233.88;69.93;;;;;;;;;;4975870;28;20172;-49
2024/04/01 06:50:22;;;;;;;237.77;73.43;;;;;;;;;;4977316;28;20186;-50
2024/04/01 06:52:48;;;;;;;241.70;76.70;;;;;;;;;;4975051;28;20416;-49
2024/04/01 06:55:14;;;;;;;244.73;77.53;;;;;;;;;;4977665;28;20220;-47
2024/04/01 06:57:42;;;;;;;241.38;77.25;;;;;;;;;;4977436;28;20879;-48
2024/04/01 07:00:08;;;;;;;237.43;72.65;;;;;;;;;;4968096;28;20262;-46
2024/04/01 07:02:34;;;;;;;240.48;74.22;;;;;;;;;;4975542;28;20257;-50
2024/04/01 07:05:00;;;;;;;236.47;68.50;;;;;;;;;;4976815;28;20227;-47
2024/04/01 07:07:26;;;;;;;237.37;70.47;;;;;;;;;;4979102;28;20914;-49
2024/04/01 07:09:52;;;;;;;236.37;68.60;;;;;;;;;;4983593;28;21001;-49
2024/04/01 07:12:19;;;;;;;236.67;69.83;;;;;;;;;;4982952;28;20950;-48
2024/04/01 07:14:45;;;;;;;235.20;69.10;;;;;;;;;;4980899;28;20449;-49
2024/04/01 07:17:11;;;;;;;235.53;67.87;;;;;;;;;;4977726;28;20205;-49
2024/04/01 07:19:37;;;;;;;236.23;69.47;;;;;;;;;;4980149;28;20411;-50
2024/04/01 07:22:03;;;;;;;239.40;74.77;;;;;;;;;;4977383;28;20515;-47
2024/04/01 07:24:29;;;;;;;239.83;73.83;;;;;;;;;;4982331;28;20457;-48
2024/04/01 07:26:55;;;;;;;238.27;69.20;;;;;;;;;;4982796;28;20922;-47
2024/04/01 07:29:20;;;;;;;239.23;72.53;;;;;;;;;;4976653;28;20422;-47
2024/04/01 07:31:46;;;;;;;241.30;74.37;;;;;;;;;;4976566;28;20434;-49
2024/04/01 07:34:13;;;;;;;237.53;69.37;;;;;;;;;;4977300;28;20513;-49
2024/04/01 07:36:38;;;;;;;245.10;77.93;;;;;;;;;;4979021;28;20459;-48
2024/04/01 07:39:04;;;;;;;237.90;70.10;;;;;;;;;;4981848;28;20189;-50
2024/04/01 07:41:31;;;;;;;236.77;69.67;;;;;;;;;;4977005;28;20417;-50
2024/04/01 07:43:57;;;;;;;239.70;72.28;;;;;;;;;;4977419;28;20766;-48
2024/04/01 07:46:23;;;;;;;237.33;72.23;;;;;;;;;;4978712;28;20734;-49
2024/04/01 07:48:49;;;;;;;236.00;67.60;;;;;;;;;;4977200;28;20840;-49
2024/04/01 07:51:15;;;;;;;236.55;68.20;;;;;;;;;;4979874;28;20179;-49
2024/04/01 07:53:41;;;;;;;238.97;71.13;;;;;;;;;;4979911;28;20435;-49
2024/04/01 07:56:06;;;;;;;236.53;67.67;;;;;;;;;;4983708;28;20485;-50
2024/04/01 07:58:33;;;;;;;237.87;67.27;;;;;;;;;;4976932;28;20420;-49
2024/04/01 08:01:04;;;;;;;238.75;70.45;;;;;;;;;;4978880;28;20440;-49
2024/04/01 08:03:30;;;;;;;237.02;68.55;;;;;;;;;;4980080;28;20198;-49
2024/04/01 08:05:56;;;;;;;237.33;69.23;;;;;;;;;;4974132;28;20702;-45
2024/04/01 08:08:22;;;;;;;237.77;69.73;;;;;;;;;;4974970;28;20919;-45
2024/04/01 08:10:48;;;;;;;241.80;75.10;;;;;;;;;;4975280;28;20911;-44
2024/04/01 08:13:14;;;;;;;239.20;70.30;;;;;;;;;;4974842;28;20948;-46
2024/04/01 08:15:40;;;;;;;238.35;70.78;;;;;;;;;;4974907;28;20965;-46
2024/04/01 08:18:06;;;;;;;242.90;74.80;;;;;;;;;;4973828;28;20175;-46
2024/04/01 08:20:32;;;;;;;240.30;68.57;;;;;;;;;;4981434;28;20419;-47
2024/04/01 08:22:58;;;;;;;238.20;69.87;;;;;;;;;;4986591;28;20444;-45
2024/04/01 08:25:24;;;;;;;237.93;70.93;;;;;;;;;;4974561;28;20423;-45
2024/04/01 08:27:50;;;;;;;241.30;72.93;;;;;;;;;;4992108;28;20465;-47
2024/04/01 08:30:16;;;;;;;238.13;70.78;;;;;;;;;;4993694;28;20426;-45
2024/04/01 08:32:42;;;;;;;234.87;69.23;;;;;;;;;;4993332;28;20610;-46
2024/04/01 08:35:08;;;;;;;240.17;72.90;;;;;;;;;;4984941;28;20470;-47
2024/04/01 08:37:34;;;;;;;236.07;66.88;;;;;;;;;;4974210;28;20513;-46
2024/04/01 08:40:00;;;;;;;238.67;72.00;;;;;;;;;;4977641;28;20191;-47
2024/04/01 08:42:27;;;;;;;236.87;70.47;;;;;;;;;;4993779;28;20448;-44
2024/04/01 08:44:53;;;;;;;237.15;68.80;;;;;;;;;;4993098;28;20425;-45
2024/04/01 08:47:19;;;;;;;238.47;69.50;;;;;;;;;;4993666;28;20182;-48
2024/04/01 08:49:50;;;;;;;236.68;67.00;;;;;;;;;;4993037;28;20447;-47
2024/04/01 08:52:21;;;;;;;234.55;66.47;;;;;;;;;;4980799;28;20180;-48
2024/04/01 08:54:47;;;;;;;239.27;69.15;;;;;;;;;;4975615;28;20216;-48
2024/04/01 08:57:13;;;;;;;238.50;70.40;;;;;;;;;;4992901;28;20208;-49
2024/04/01 08:59:39;;;;;;;234.53;65.67;;;;;;;;;;4993127;28;20426;-47
2024/04/01 09:02:05;;;;;;;235.43;67.38;;;;;;;;;;4989805;28;20473;-47
2024/04/01 09:04:31;;;;;;;235.60;66.70;;;;;;;;;;4992889;28;20675;-48
2024/04/01 09:06:58;;;;;;;238.05;72.35;;;;;;;;;;4992489;28;20465;-48
2024/04/01 09:09:24;;;;;;;237.05;67.85;;;;;;;;;;4992927;28;20179;-47
2024/04/01 09:11:50;;;;;;;236.50;67.63;;;;;;;;;;4992727;28;20712;-47
2024/04/01 09:14:17;;;;;;;235.40;65.65;;;;;;;;;;4992640;28;20278;-48
2024/04/01 09:16:43;;;;;;;239.98;72.78;;;;;;;;;;4991710;28;20281;-48
2024/04/01 09:19:10;;;;;;;254.07;81.63;;;;;;;;;;4988441;28;20248;-47
2024/04/01 09:21:38;;;;;;;235.50;65.60;;;;;;;;;;4973732;28;20640;-48
2024/04/01 09:24:04;;;;;;;239.25;69.82;;;;;;;;;;4992434;28;20210;-48
2024/04/01 09:26:30;;;;;;;238.90;70.45;;;;;;;;;;4988040;28;20553;-48
2024/04/01 09:28:57;;;;;;;242.93;75.55;;;;;;;;;;4990825;28;20661;-48
2024/04/01 09:31:23;;;;;;;237.85;70.18;;;;;;;;;;4990604;28;20170;-48
2024/04/01 09:33:49;;;;;;;246.05;83.85;;;;;;;;;;4991774;28;20622;-47
2024/04/01 09:36:16;;;;;;;240.73;71.97;;;;;;;;;;4990758;28;20189;-49
2024/04/01 09:38:42;;;;;;;241.15;77.35;;;;;;;;;;4991861;28;20178;-48
2024/04/01 09:41:08;;;;;;;235.90;69.80;;;;;;;;;;4992269;28;20315;-48
2024/04/01 09:43:34;;;;;;;238.80;69.70;;;;;;;;;;4992345;28;20430;-47
2024/04/01 09:46:00;;;;;;;235.30;63.88;;;;;;;;;;4992092;28;20256;-47
2024/04/01 09:48:27;;;;;;;237.52;68.32;;;;;;;;;;4991034;28;20657;-48
2024/04/01 09:50:54;;;;;;;240.20;70.32;;;;;;;;;;4972443;28;20186;-48
2024/04/01 09:53:20;;;;;;;235.95;65.13;;;;;;;;;;4978957;28;20217;-47
2024/04/01 09:55:55;;;;;;;237.73;68.03;;;;;;;;;;4977789;28;20647;-47
2024/04/01 09:58:24;;;;;;;238.07;68.43;;;;;;;;;;4978800;28;20430;-48
2024/04/01 10:00:51;;;;;;;236.05;67.80;;;;;;;;;;4988750;28;20192;-47
2024/04/01 10:03:36;;;;;;;238.48;72.30;;;;;;;;;;4991833;28;20197;-47
2024/04/01 10:06:08;;;;;;;241.13;74.82;;;;;;;;;;4990957;28;20259;-48
2024/04/01 10:08:49;;;;;;;237.15;66.55;;;;;;;;;;4978578;28;20198;-47
2024/04/01 10:11:21;;;;;;;237.70;69.70;;;;;;;;;;4979902;28;20563;-48
2024/04/01 10:14:05;;;;;;;239.43;73.47;;;;;;;;;;4991750;28;20634;-48
2024/04/01 10:16:50;;;;;;;236.98;65.43;;;;;;;;;;4983670;28;20579;-47
2024/04/01 10:19:34;;;;;;;236.88;66.50;;;;;;;;;;4991451;28;20256;-47
2024/04/01 10:22:12;;;;;;;236.57;68.32;;;;;;;;;;4991526;28;20235;-48
2024/04/01 10:24:38;;;;;;;234.80;67.72;;;;;;;;;;4991396;28;20264;-47
2024/04/01 10:27:22;;;;;;;237.57;69.83;;;;;;;;;;4990536;28;20268;-47
2024/04/01 10:29:51;;;;;;;237.32;70.35;;;;;;;;;;4991596;28;20456;-47
2024/04/01 10:32:17;;;;;;;237.45;66.63;;;;;;;;;;4991537;28;20195;-48
2024/04/01 10:34:49;;;;;;;236.80;69.07;;;;;;;;;;4991308;28;20275;-47
2024/04/01 10:37:33;;;;;;;238.38;71.25;;;;;;;;;;4991047;28;20466;-47
2024/04/01 10:40:03;;;;;;;238.55;67.93;;;;;;;;;;4991164;28;20232;-47
2024/04/01 10:42:59;;;;;;;239.77;70.35;;;;;;;;;;4992963;28;20195;-47
2024/04/01 10:45:37;;;;;;;238.07;70.40;;;;;;;;;;4995328;28;20188;-47
2024/04/01 10:48:19;;;;;;;236.13;65.53;;;;;;;;;;4992902;28;20192;-47
2024/04/01 10:50:54;;;;;;;236.45;66.18;;;;;;;;;;4995445;28;20676;-47
2024/04/01 10:53:26;;;;;;;236.70;66.30;;;;;;;;;;4995254;28;20287;-48
2024/04/01 10:55:52;;;;;;;234.00;62.63;;;;;;;;;;4994853;28;20195;-47
2024/04/01 10:58:38;;;;;;;238.20;71.03;;;;;;;;;;4995147;28;20182;-47
2024/04/01 11:01:24;;;;;;;236.40;65.38;;;;;;;;;;4986211;28;20455;-47
2024/04/01 11:03:59;;;;;;;236.82;67.70;;;;;;;;;;4960789;28;20225;-47
2024/04/01 11:06:34;;;;;;;235.90;65.40;;;;;;;;;;4994056;28;20196;-48
2024/04/01 11:09:19;;;;;;;234.57;64.45;;;;;;;;;;4995002;28;20181;-47
2024/04/01 11:12:04;;;;;;;237.55;70.60;;;;;;;;;;4994551;28;20604;-47
2024/04/01 11:14:30;;;;;;;234.73;64.80;;;;;;;;;;4982867;28;20694;-47
2024/04/01 11:16:57;;;;;;;236.60;68.57;;;;;;;;;;4986039;28;20243;-47
2024/04/01 11:19:23;;;;;;;239.98;71.22;;;;;;;;;;4994406;28;20415;-47
2024/04/01 11:21:52;;;;;;;235.95;68.80;;;;;;;;;;4994587;28;20233;-47
2024/04/01 11:24:37;;;;;;;239.40;71.88;;;;;;;;;;4994648;28;20229;-47
2024/04/01 11:27:09;;;;;;;235.98;67.45;;;;;;;;;;4994370;28;20182;-47
2024/04/01 11:29:44;;;;;;;234.88;65.70;;;;;;;;;;4994214;28;20190;-47
2024/04/01 11:32:17;;;;;;;242.05;70.75;;;;;;;;;;4986656;28;20181;-47
2024/04/01 11:34:42;;;;;;;238.02;67.20;;;;;;;;;;4987175;28;20236;-48
2024/04/01 11:37:09;;;;;;;239.37;70.03;;;;;;;;;;4994164;28;20458;-47
2024/04/01 11:39:37;;;;;;;241.68;76.13;;;;;;;;;;4994461;28;20421;-47
2024/04/01 11:42:04;;;;;;;241.45;72.38;;;;;;;;;;4994133;28;20185;-47
2024/04/01 11:44:31;;;;;;;240.43;72.45;;;;;;;;;;4994054;28;20246;-47
2024/04/01 11:46:57;;;;;;;238.15;70.30;;;;;;;;;;4993854;28;20193;-46
2024/04/01 11:49:23;;;;;;;237.32;68.47;;;;;;;;;;4994296;28;20187;-47
2024/04/01 11:51:51;;;;;;;239.07;71.70;;;;;;;;;;4994325;28;20188;-46
2024/04/01 11:54:24;;;;;;;239.80;72.55;;;;;;;;;;4993146;28;20229;-47
2024/04/01 11:56:51;;;;;;;242.70;76.22;;;;;;;;;;4993104;28;20682;-47
2024/04/01 11:59:27;;;;;;;238.82;71.25;;;;;;;;;;4991170;28;20182;-48
2024/04/01 12:01:53;;;;;;;238.70;70.30;;;;;;;;;;4990882;28;20545;-48
2024/04/01 12:04:20;;;;;;;242.97;77.40;;;;;;;;;;4994247;28;20200;-47
2024/04/01 12:06:46;;;;;;;242.57;72.93;;;;;;;;;;4988445;28;20462;-47
2024/04/01 12:09:12;;;;;;;245.60;77.60;;;;;;;;;;4973293;28;20205;-47
2024/04/01 12:11:42;;;;;;;244.15;73.40;;;;;;;;;;4974273;28;20173;-47
2024/04/01 12:14:09;;;;;;;242.88;79.18;;;;;;;;;;4979152;28;20203;-48
2024/04/01 12:16:35;;;;;;;239.82;72.93;;;;;;;;;;4993358;28;20193;-48
2024/04/01 12:19:02;;;;;;;238.97;71.80;;;;;;;;;;4993806;28;20225;-48
2024/04/01 12:21:31;;;;;;;238.82;71.55;;;;;;;;;;4993594;28;20464;-48
2024/04/01 12:23:57;;;;;;;238.85;71.75;;;;;;;;;;4993681;28;20210;-46
2024/04/01 12:26:24;;;;;;;236.50;67.85;;;;;;;;;;4993292;28;20274;-48
2024/04/01 12:28:52;;;;;;;235.82;66.43;;;;;;;;;;4993436;28;20180;-47
2024/04/01 12:31:20;;;;;;;240.52;75.57;;;;;;;;;;4993533;28;20176;-48
2024/04/01 12:33:49;;;;;;;242.45;76.07;;;;;;;;;;4993396;28;20286;-48
2024/04/01 12:36:15;;;;;;;238.63;71.75;;;;;;;;;;4993426;28;20274;-49
2024/04/01 12:38:43;;;;;;;243.57;76.40;;;;;;;;;;4993344;28;20204;-48
2024/04/01 12:41:09;;;;;;;239.23;72.05;;;;;;;;;;4993644;28;20557;-53
2024/04/01 12:43:36;;;;;;;242.93;73.07;;;;;;;;;;4993426;28;20202;-47
2024/04/01 12:46:03;;;;;;;240.43;72.57;;;;;;;;;;4992912;28;20188;-47
2024/04/01 12:48:29;;;;;;;263.27;88.10;;;;;;;;;;4989602;28;20195;-47
2024/04/01 12:50:57;;;;;;;243.43;75.87;;;;;;;;;;4973042;28;20783;-48
2024/04/01 12:53:41;;;;;;;242.17;75.10;;;;;;;;;;4973636;28;20446;-48
2024/04/01 12:56:07;;;;;;;242.98;76.13;;;;;;;;;;4973811;28;20559;-48
2024/04/01 12:58:41;;;;;;;242.53;75.60;;;;;;;;;;4980130;28;20652;-47
2024/04/01 13:01:15;;;;;;;244.90;81.88;;;;;;;;;;4973996;28;20412;-46
2024/04/01 13:04:00;;;;;;;246.13;79.90;;;;;;;;;;4974465;28;20193;-47
2024/04/01 13:06:48;;;;;;;245.95;81.85;;;;;;;;;;4973219;28;20733;-47
2024/04/01 13:09:19;;;;;;;238.85;75.32;;;;;;;;;;4973876;28;20617;-48
2024/04/01 13:11:58;;;;;;;242.55;78.57;;;;;;;;;;4979420;28;20188;-48
2024/04/01 13:14:24;;;;;;;239.85;73.45;;;;;;;;;;4973760;28;20550;-47
2024/04/01 13:17:00;;;;;;;239.60;75.50;;;;;;;;;;4974007;28;20756;-47
2024/04/01 13:19:37;;;;;;;254.27;85.55;;;;;;;;;;4972482;28;20413;-46
2024/04/01 13:22:09;;;;;;;239.00;73.97;;;;;;;;;;4977411;28;20232;-46
2024/04/01 13:24:37;;;;;;;242.60;78.90;;;;;;;;;;4973153;28;20216;-48
2024/04/01 13:27:22;;;;;;;240.35;75.78;;;;;;;;;;4981287;28;20490;-48
2024/04/01 13:29:48;;;;;;;240.63;74.70;;;;;;;;;;4982804;28;20568;-47
2024/04/01 13:32:25;;;;;;;240.43;76.60;;;;;;;;;;4973316;28;20201;-47
2024/04/01 13:35:04;;;;;;;239.70;72.95;;;;;;;;;;4974316;28;20808;-47
2024/04/01 13:37:31;;;;;;;240.23;76.07;;;;;;;;;;4976929;28;20201;-48
2024/04/01 13:40:09;;;;;;;243.75;80.78;;;;;;;;;;4978728;28;20196;-47
2024/04/01 13:42:35;;;;;;;238.60;74.88;;;;;;;;;;4973768;28;20288;-47
2024/04/01 13:45:37;;;;;;;243.47;78.37;;;;;;;;;;4972745;28;20239;-47
2024/04/01 13:48:27;;;;;;;238.43;72.85;;;;;;;;;;4950796;29;20419;-48
2024/04/01 13:50:57;;;;;;;240.02;74.75;;;;;;;;;;4974023;28;20603;-47
2024/04/01 13:53:45;;;;;;;240.35;77.32;;;;;;;;;;4971557;28;20195;-47
2024/04/01 13:56:11;;;;;;;239.55;74.05;;;;;;;;;;4965722;28;20593;-47
2024/04/01 13:58:37;;;;;;;241.07;78.60;;;;;;;;;;4972424;28;20177;-47
2024/04/01 14:01:05;;;;;;;236.07;72.37;;;;;;;;;;4972845;28;20413;-49
2024/04/01 14:03:39;;;;;;;239.88;76.95;;;;;;;;;;4972639;28;20440;-48
2024/04/01 14:06:05;;;;;;;240.50;78.00;;;;;;;;;;4973007;28;20194;-47
2024/04/01 14:08:48;;;;;;;237.17;73.97;;;;;;;;;;4972725;28;20175;-46